createdAt,value
2023-03-06T00:00:35.334Z,4.20
2023-03-06T00:03:02.639Z,4.30
2023-03-06T00:05:29.625Z,4.10
2023-03-06T00:07:56.371Z,3.90
2023-03-06T00:10:28.886Z,4.20
2023-03-06T00:13:04.114Z,3.90
2023-03-06T00:15:31.400Z,4.20
2023-03-06T00:20:26.370Z,4.10
2023-03-06T00:22:53.125Z,4.00
2023-03-06T00:25:21.369Z,4.00
2023-03-06T00:30:19.187Z,3.90
2023-03-06T00:32:45.949Z,4.10
2023-03-06T00:35:13.498Z,4.10
2023-03-06T00:40:11.034Z,4.10
2023-03-06T00:42:37.759Z,3.90
2023-03-06T00:45:04.909Z,4.00
2023-03-06T00:49:58.699Z,3.90
2023-03-06T00:54:52.746Z,3.90
2023-03-06T00:57:19.453Z,3.90
2023-03-06T01:02:13.444Z,3.90
2023-03-06T01:07:07.279Z,3.70
2023-03-06T01:09:33.941Z,4.00
2023-03-06T01:12:00.971Z,3.90
2023-03-06T01:14:28.090Z,3.70
2023-03-06T01:24:16.162Z,4.10
2023-03-06T01:31:37.534Z,4.00
2023-03-06T01:41:25.757Z,3.90
2023-03-06T01:46:28.728Z,3.90
2023-03-06T01:49:12.608Z,3.90
2023-03-06T01:51:48.327Z,3.90
2023-03-06T01:54:24.419Z,3.90
2023-03-06T01:56:55.880Z,6.30
2023-03-06T01:59:24.691Z,3.90
2023-03-06T02:01:51.457Z,4.20
2023-03-06T02:06:47.502Z,3.90
2023-03-06T02:09:14.873Z,3.80
2023-03-06T02:11:44.065Z,3.80
2023-03-06T02:14:14.288Z,3.90
2023-03-06T02:19:24.421Z,3.90
2023-03-06T02:21:51.231Z,4.00
2023-03-06T02:24:38.810Z,3.90
2023-03-06T02:27:07.483Z,3.90
2023-03-06T02:29:34.219Z,3.90
2023-03-06T02:37:02.558Z,3.80
2023-03-06T02:39:33.994Z,3.70
2023-03-06T02:42:00.725Z,3.60
2023-03-06T02:44:28.608Z,3.60
2023-03-06T02:46:55.312Z,3.60
2023-03-06T02:54:18.318Z,3.50
2023-03-06T02:56:45.474Z,3.50
2023-03-06T02:59:12.712Z,3.50
2023-03-06T03:01:39.417Z,3.40
2023-03-06T03:04:06.185Z,3.40
2023-03-06T03:09:00.007Z,3.40
2023-03-06T03:18:48.254Z,3.60
2023-03-06T03:21:16.133Z,3.50
2023-03-06T03:23:43.066Z,3.60
2023-03-06T03:26:21.174Z,3.50
2023-03-06T03:28:47.915Z,3.50
2023-03-06T03:36:09.527Z,3.60
2023-03-06T03:38:36.289Z,3.70
2023-03-06T03:41:04.057Z,3.70
2023-03-06T03:45:57.897Z,3.80
2023-03-06T03:48:24.606Z,3.80
2023-03-06T03:55:48.210Z,3.80
2023-03-06T03:58:14.896Z,3.90
2023-03-06T04:03:08.682Z,3.90
2023-03-06T04:05:35.868Z,3.80
2023-03-06T04:15:24.707Z,3.60
2023-03-06T04:17:51.499Z,3.70
2023-03-06T04:22:45.324Z,3.80
2023-03-06T04:27:39.258Z,3.80
2023-03-06T04:30:07.068Z,3.80
2023-03-06T04:32:33.863Z,3.60
2023-03-06T04:39:54.988Z,3.90
2023-03-06T04:44:48.833Z,3.80
2023-03-06T04:52:13.167Z,3.90
2023-03-06T05:06:55.581Z,3.80
2023-03-06T05:11:49.398Z,3.80
2023-03-06T05:19:10.435Z,3.70
2023-03-06T05:28:58.715Z,3.80
2023-03-06T05:41:14.181Z,3.80
2023-03-06T05:46:08.942Z,3.70
2023-03-06T05:48:36.395Z,3.80
2023-03-06T05:51:04.540Z,3.80
2023-03-06T05:53:31.856Z,3.90
2023-03-06T05:56:00.923Z,3.80
2023-03-06T05:58:28.916Z,3.80
2023-03-06T06:00:56.132Z,3.70
2023-03-06T06:03:23.437Z,3.80
2023-03-06T06:05:51.008Z,3.70
2023-03-06T06:08:17.726Z,3.60
2023-03-06T06:10:44.684Z,3.80
2023-03-06T06:15:38.890Z,3.80
2023-03-06T06:27:57.742Z,3.80
2023-03-06T06:40:13.585Z,3.70
2023-03-06T06:45:10.321Z,3.80
2023-03-06T06:47:41.596Z,3.80
2023-03-06T06:50:12.702Z,3.90
2023-03-06T06:52:39.429Z,3.70
2023-03-06T06:55:07.150Z,3.90
2023-03-06T06:57:34.166Z,3.90
2023-03-06T07:00:00.835Z,3.80
2023-03-06T07:02:27.727Z,3.90
2023-03-06T07:05:04.230Z,4.00
2023-03-06T07:07:36.186Z,4.00
2023-03-06T07:10:06.736Z,3.90
2023-03-06T07:12:34.971Z,4.00
2023-03-06T07:15:01.728Z,4.00
2023-03-06T07:17:28.663Z,4.00
2023-03-06T07:19:55.359Z,4.00
2023-03-06T07:22:22.078Z,4.10
2023-03-06T07:24:48.821Z,4.10
2023-03-06T07:27:15.558Z,4.10
2023-03-06T07:29:45.392Z,4.00
2023-03-06T07:32:12.276Z,4.10
2023-03-06T07:34:39.025Z,4.10
2023-03-06T07:37:05.806Z,4.10
2023-03-06T07:39:32.472Z,4.10
2023-03-06T07:41:59.245Z,4.30
2023-03-06T07:44:30.529Z,4.20
2023-03-06T07:46:57.461Z,4.30
2023-03-06T07:49:24.161Z,4.30
2023-03-06T07:51:50.814Z,4.40
2023-03-06T07:54:17.550Z,4.50
2023-03-06T07:56:44.220Z,4.70
2023-03-06T07:59:11.714Z,6.80
2023-03-06T08:01:40.187Z,4.60
2023-03-06T08:04:07.110Z,4.40
2023-03-06T08:11:30.050Z,4.30
2023-03-06T08:13:57.897Z,4.40
2023-03-06T08:16:27.278Z,4.60
2023-03-06T08:21:24.870Z,4.70
2023-03-06T08:23:51.988Z,4.30
2023-03-06T08:26:22.020Z,4.60
2023-03-06T08:31:33.186Z,4.80
2023-03-06T08:34:02.512Z,4.80
2023-03-06T08:36:29.616Z,5.10
2023-03-06T08:38:57.075Z,5.20
2023-03-06T08:46:21.247Z,5.00
2023-03-06T08:48:48.231Z,5.10
2023-03-06T08:51:15.890Z,4.90
2023-03-06T08:53:44.238Z,4.70
2023-03-06T08:56:28.480Z,5.00
2023-03-06T08:58:57.795Z,4.80
2023-03-06T09:01:27.668Z,4.70
2023-03-06T09:03:56.384Z,4.70
2023-03-06T09:06:23.701Z,4.40
2023-03-06T09:08:54.582Z,4.70
2023-03-06T09:11:22.621Z,4.80
2023-03-06T09:13:49.664Z,4.60
2023-03-06T09:16:16.462Z,4.70
2023-03-06T09:18:43.151Z,4.90
2023-03-06T09:21:10.302Z,5.10
2023-03-06T09:23:39.632Z,5.20
2023-03-06T09:26:07.584Z,5.00
2023-03-06T09:28:39.254Z,5.30
2023-03-06T09:31:13.665Z,5.50
2023-03-06T09:33:40.647Z,5.50
2023-03-06T09:36:08.847Z,6.00
2023-03-06T09:41:24.145Z,6.30
2023-03-06T09:43:54.554Z,6.50
2023-03-06T09:46:35.002Z,6.30
2023-03-06T09:49:20.691Z,6.60
2023-03-06T09:51:52.259Z,6.00
2023-03-06T09:54:24.425Z,6.00
2023-03-06T09:56:51.544Z,5.80
2023-03-06T09:59:22.483Z,5.70
2023-03-06T10:02:02.682Z,5.60
2023-03-06T10:04:41.292Z,5.70
2023-03-06T10:07:19.807Z,5.60
2023-03-06T10:10:05.613Z,5.70
2023-03-06T10:13:03.548Z,5.70
2023-03-06T10:15:35.959Z,6.10
2023-03-06T10:18:03.827Z,6.20
2023-03-06T10:21:16.955Z,6.40
2023-03-06T10:24:04.974Z,6.90
2023-03-06T10:26:48.876Z,6.80
2023-03-06T10:29:39.224Z,6.60
2023-03-06T10:32:29.076Z,6.50
2023-03-06T10:35:00.613Z,6.40
2023-03-06T10:37:31.649Z,6.10
2023-03-06T10:40:14.979Z,6.20
2023-03-06T10:42:41.650Z,6.20
2023-03-06T10:45:10.243Z,6.10
2023-03-06T10:47:38.394Z,6.10
2023-03-06T10:50:27.895Z,5.90
2023-03-06T10:53:18.863Z,5.80
2023-03-06T10:55:56.141Z,5.80
2023-03-06T10:58:33.177Z,6.30
2023-03-06T11:01:21.102Z,5.70
2023-03-06T11:03:48.217Z,5.50
2023-03-06T11:06:30.261Z,5.60
2023-03-06T11:09:24.276Z,5.60
2023-03-06T11:11:51.686Z,5.40
2023-03-06T11:14:22.734Z,5.60
2023-03-06T11:16:54.365Z,5.90
2023-03-06T11:19:26.493Z,5.40
2023-03-06T11:22:03.161Z,5.30
2023-03-06T11:24:41.008Z,5.50
2023-03-06T11:27:36.077Z,5.40
2023-03-06T11:30:16.002Z,5.40
2023-03-06T11:32:55.320Z,5.20
2023-03-06T11:35:51.783Z,5.50
2023-03-06T11:38:35.731Z,5.50
2023-03-06T11:41:13.811Z,5.60
2023-03-06T11:44:23.069Z,5.80
2023-03-06T11:47:19.419Z,5.60
2023-03-06T11:49:52.569Z,5.70
2023-03-06T11:57:35.281Z,5.80
2023-03-06T12:00:32.852Z,5.80
2023-03-06T12:03:23.194Z,5.90
2023-03-06T12:06:18.911Z,5.90
2023-03-06T12:09:12.791Z,5.80
2023-03-06T12:14:41.619Z,5.70
2023-03-06T12:17:26.469Z,5.60
2023-03-06T12:20:11.956Z,5.60
2023-03-06T12:23:15.322Z,5.80
2023-03-06T12:26:14.483Z,6.10
2023-03-06T12:29:04.995Z,6.20
2023-03-06T12:31:49.994Z,6.40
2023-03-06T12:34:47.500Z,6.40
2023-03-06T12:37:26.016Z,6.20
2023-03-06T12:40:11.391Z,6.50
2023-03-06T12:43:02.502Z,6.30
2023-03-06T12:45:39.571Z,6.00
2023-03-06T12:48:20.682Z,5.80
2023-03-06T12:50:48.788Z,5.70
2023-03-06T12:53:28.138Z,5.60
2023-03-06T12:55:55.816Z,5.70
2023-03-06T12:58:28.694Z,5.80
2023-03-06T13:01:04.186Z,5.80
2023-03-06T13:03:49.019Z,5.80
2023-03-06T13:06:45.055Z,5.90
2023-03-06T13:09:42.704Z,5.80
2023-03-06T13:12:38.348Z,5.90
2023-03-06T13:15:39.208Z,5.90
2023-03-06T13:18:21.430Z,5.90
2023-03-06T13:20:49.211Z,6.00
2023-03-06T13:23:34.518Z,6.00
2023-03-06T13:28:40.807Z,6.00
2023-03-06T13:31:15.382Z,5.90
2023-03-06T13:33:56.051Z,6.00
2023-03-06T13:36:41.009Z,5.90
2023-03-06T13:39:11.879Z,5.80
2023-03-06T13:44:23.921Z,5.60
2023-03-06T13:47:17.532Z,5.70
2023-03-06T13:49:46.857Z,5.60
2023-03-06T13:52:35.843Z,5.50
2023-03-06T13:55:33.737Z,5.40
2023-03-06T13:58:12.365Z,5.40
2023-03-06T14:01:09.298Z,5.40
2023-03-06T14:03:57.758Z,5.40
2023-03-06T14:06:37.332Z,5.20
2023-03-06T14:09:06.705Z,5.40
2023-03-06T14:11:35.295Z,5.50
2023-03-06T14:14:02.558Z,5.40
2023-03-06T14:16:48.885Z,5.50
2023-03-06T14:21:44.770Z,5.80
2023-03-06T14:24:17.733Z,5.70
2023-03-06T14:26:50.884Z,5.80
2023-03-06T14:29:26.359Z,5.70
2023-03-06T14:31:58.167Z,5.70
2023-03-06T14:39:41.687Z,6.00
2023-03-06T14:50:30.512Z,6.00
2023-03-06T15:08:01.948Z,5.90
2023-03-06T15:10:31.393Z,6.00
2023-03-06T15:13:21.218Z,5.90
2023-03-06T15:16:04.630Z,5.90
2023-03-06T15:18:36.145Z,6.00
2023-03-06T15:21:18.328Z,5.90
2023-03-06T15:26:36.724Z,6.30
2023-03-06T15:29:10.622Z,6.20
2023-03-06T15:39:38.951Z,6.50
2023-03-06T15:44:53.992Z,6.50
2023-03-06T15:49:51.900Z,6.60
2023-03-06T15:54:46.593Z,6.60
2023-03-06T15:57:23.785Z,6.30
2023-03-06T16:04:49.970Z,6.50
2023-03-06T16:07:17.126Z,6.00
2023-03-06T16:12:17.266Z,6.10
2023-03-06T16:19:40.217Z,6.10
2023-03-06T16:22:07.016Z,5.80
2023-03-06T16:31:58.795Z,5.70
2023-03-06T16:39:22.655Z,5.60
2023-03-06T16:44:16.883Z,5.50
2023-03-06T16:49:20.635Z,5.20
2023-03-06T16:51:47.454Z,5.50
2023-03-06T17:04:03.612Z,5.30
2023-03-06T17:16:20.791Z,5.20
2023-03-06T17:21:17.757Z,5.40
2023-03-06T17:23:44.810Z,4.90
2023-03-06T17:26:20.547Z,5.40
2023-03-06T17:28:47.868Z,5.20
2023-03-06T17:31:23.017Z,5.20
2023-03-06T17:33:51.532Z,5.10
2023-03-06T17:36:19.296Z,4.80
2023-03-06T17:43:41.268Z,4.90
2023-03-06T17:46:10.562Z,4.90
2023-03-06T17:48:37.725Z,4.80
2023-03-06T18:13:19.992Z,4.80
2023-03-06T18:15:46.692Z,4.70
2023-03-06T18:18:13.444Z,4.60
2023-03-06T18:20:44.707Z,4.60
2023-03-06T18:23:13.210Z,4.60
2023-03-06T18:25:40.129Z,4.60
2023-03-06T18:28:06.999Z,4.60
2023-03-06T18:30:39.058Z,4.70
2023-03-06T18:35:36.760Z,4.80
2023-03-06T18:38:03.521Z,4.60
2023-03-06T18:40:30.269Z,4.80
2023-03-06T18:47:51.276Z,4.80
2023-03-06T18:50:17.945Z,4.90
2023-03-06T18:52:44.926Z,4.90
2023-03-06T18:55:12.163Z,5.00
2023-03-06T18:57:39.533Z,4.90
2023-03-06T19:00:09.512Z,5.00
2023-03-06T19:02:36.293Z,4.90
2023-03-06T19:07:30.143Z,5.00
2023-03-06T19:09:56.791Z,5.00
2023-03-06T19:12:24.637Z,5.00
2023-03-06T19:14:51.385Z,5.00
2023-03-06T19:17:18.043Z,5.10
2023-03-06T19:19:44.790Z,5.10
2023-03-06T19:22:11.444Z,5.00
2023-03-06T19:24:38.145Z,5.10
2023-03-06T19:27:04.949Z,5.10
2023-03-06T19:29:32.522Z,5.10
2023-03-06T19:31:59.444Z,5.30
2023-03-06T19:34:26.327Z,5.20
2023-03-06T19:36:53.103Z,5.20
2023-03-06T19:39:19.855Z,5.10
2023-03-06T19:41:47.741Z,5.20
2023-03-06T19:44:16.119Z,5.20
2023-03-06T19:46:43.481Z,5.20
2023-03-06T19:49:16.606Z,5.20
2023-03-06T19:51:43.632Z,5.20
2023-03-06T19:54:12.268Z,5.20
2023-03-06T19:56:39.046Z,5.20
2023-03-06T20:01:34.227Z,5.20
2023-03-06T20:04:01.322Z,5.20
2023-03-06T20:06:31.313Z,5.20
2023-03-06T20:08:58.412Z,5.20
2023-03-06T20:11:27.168Z,5.20
2023-03-06T20:13:54.174Z,5.20
2023-03-06T20:16:20.898Z,5.20
2023-03-06T20:18:47.721Z,5.20
2023-03-06T20:21:15.275Z,5.20
2023-03-06T20:23:42.745Z,5.20
2023-03-06T20:26:12.473Z,5.10
2023-03-06T20:28:40.293Z,5.20
2023-03-06T20:31:18.874Z,5.20
2023-03-06T20:33:47.008Z,5.20
2023-03-06T20:36:16.349Z,5.20
2023-03-06T20:38:43.773Z,5.30
2023-03-06T20:41:15.758Z,5.20
2023-03-06T20:43:43.005Z,5.30
2023-03-06T20:46:11.357Z,5.20
2023-03-06T20:48:38.877Z,5.30
2023-03-06T20:51:10.853Z,5.40
2023-03-06T20:53:37.634Z,5.30
2023-03-06T20:56:05.006Z,5.30
2023-03-06T20:58:32.557Z,5.10
2023-03-06T21:01:01.391Z,5.10
2023-03-06T21:03:29.591Z,5.00
2023-03-06T21:05:56.579Z,4.90
2023-03-06T21:08:23.413Z,4.90
2023-03-06T21:10:50.617Z,4.80
2023-03-06T21:13:17.730Z,4.70
2023-03-06T21:15:47.278Z,4.70
2023-03-06T21:18:14.254Z,4.70
2023-03-06T21:20:42.067Z,4.70
2023-03-06T21:23:09.104Z,4.70
2023-03-06T21:25:36.221Z,4.70
2023-03-06T21:28:03.117Z,4.60
2023-03-06T21:30:30.171Z,4.60
2023-03-06T21:32:57.036Z,4.50
2023-03-06T21:35:23.797Z,4.50
2023-03-06T21:37:50.670Z,4.50
2023-03-06T21:40:17.492Z,4.50
2023-03-06T21:42:44.246Z,4.50
2023-03-06T21:45:11.955Z,4.50
2023-03-06T21:47:40.690Z,4.50
2023-03-06T21:50:09.861Z,4.50
2023-03-06T21:52:36.860Z,4.50
2023-03-06T21:55:03.966Z,4.50
2023-03-06T21:57:30.736Z,4.50
2023-03-06T21:59:57.443Z,4.60
2023-03-06T22:02:24.229Z,4.60
2023-03-06T22:04:54.019Z,4.60
2023-03-06T22:07:20.712Z,4.60
2023-03-06T22:09:47.614Z,4.60
2023-03-06T22:12:14.480Z,4.70
2023-03-06T22:14:43.580Z,4.70
2023-03-06T22:17:10.302Z,4.70
2023-03-06T22:19:36.976Z,4.70
2023-03-06T22:22:04.475Z,4.80
2023-03-06T22:24:33.974Z,4.70
2023-03-06T22:27:00.779Z,4.80
2023-03-06T22:29:27.426Z,4.90
2023-03-06T22:31:54.126Z,4.90
2023-03-06T22:34:20.845Z,4.90
2023-03-06T22:36:48.267Z,4.90
2023-03-06T22:39:15.289Z,4.90
2023-03-06T22:41:41.930Z,4.90
2023-03-06T22:44:14.898Z,4.90
2023-03-06T22:46:41.902Z,4.90
2023-03-06T22:49:11.417Z,6.40
2023-03-06T22:51:38.541Z,5.00
2023-03-06T22:54:06.672Z,5.00
2023-03-06T22:56:33.728Z,5.00
2023-03-06T22:59:00.844Z,5.00
2023-03-06T23:01:30.471Z,5.00
2023-03-06T23:03:59.402Z,5.00
2023-03-06T23:06:30.453Z,5.00
2023-03-06T23:09:20.532Z,5.00
2023-03-06T23:11:50.680Z,5.00
2023-03-06T23:14:18.784Z,4.90
2023-03-06T23:16:45.571Z,4.90
2023-03-06T23:19:12.671Z,4.90
2023-03-06T23:21:39.324Z,4.90
2023-03-06T23:24:06.874Z,4.80
2023-03-06T23:26:34.310Z,4.80
2023-03-06T23:29:01.987Z,4.80
2023-03-06T23:31:30.551Z,4.70
2023-03-06T23:34:01.810Z,4.70
2023-03-06T23:36:29.710Z,4.70
2023-03-06T23:38:57.060Z,4.70
2023-03-06T23:41:24.834Z,4.70
2023-03-06T23:43:54.083Z,4.60
2023-03-06T23:46:21.800Z,4.60
2023-03-06T23:48:48.514Z,4.60
2023-03-06T23:51:17.827Z,4.60
2023-03-06T23:53:45.815Z,4.60
2023-03-06T23:56:13.445Z,4.60
2023-03-06T23:58:40.833Z,4.60
